TimeCDT,TemperatureF,Dew PointF,Humidity,Sea Level PressureIn,VisibilityMPH,Wind Direction,Wind SpeedMPH,Gust SpeedMPH,PrecipitationIn,Events,Conditions,WindDirDegrees,DateUTC
12:53 AM,39.0,32.0,76,30.24,10.0,North,16.1,-,N/A,,Clear,350,2012-10-29 05:53:00
1:53 AM,37.9,32.0,79,30.24,10.0,North,15.0,-,N/A,,Clear,350,2012-10-29 06:53:00
2:53 AM,37.9,32.0,79,30.23,10.0,North,13.8,-,N/A,,Clear,350,2012-10-29 07:53:00
3:53 AM,37.0,32.0,82,30.23,10.0,North,13.8,-,N/A,,Clear,350,2012-10-29 08:53:00
4:53 AM,35.1,30.9,85,30.24,10.0,NNW,11.5,-,N/A,,Clear,340,2012-10-29 09:53:00
5:53 AM,34.0,30.0,85,30.25,10.0,North,10.4,-,N/A,,Clear,360,2012-10-29 10:53:00
6:53 AM,33.1,30.0,89,30.26,10.0,NNW,11.5,-,N/A,,Clear,330,2012-10-29 11:53:00
7:53 AM,35.1,30.9,85,30.26,10.0,NNW,12.7,-,N/A,,Clear,340,2012-10-29 12:53:00
8:53 AM,39.0,34.0,82,30.27,10.0,NNW,12.7,-,N/A,,Clear,340,2012-10-29 13:53:00
9:53 AM,45.0,36.0,71,30.27,10.0,North,15.0,-,N/A,,Clear,350,2012-10-29 14:53:00
10:53 AM,48.0,36.0,63,30.26,10.0,North,16.1,-,N/A,,Clear,360,2012-10-29 15:53:00
11:53 AM,50.0,36.0,59,30.25,10.0,North,18.4,26.5,N/A,,Clear,360,2012-10-29 16:53:00
12:53 PM,52.0,36.0,54,30.22,10.0,NNW,19.6,26.5,N/A,,Partly Cloudy,340,2012-10-29 17:53:00
1:53 PM,53.1,34.0,48,30.19,10.0,NNW,19.6,26.5,N/A,,Scattered Clouds,340,2012-10-29 18:53:00
2:53 PM,52.0,33.1,49,30.17,10.0,NNW,20.7,27.6,N/A,,Scattered Clouds,340,2012-10-29 19:53:00
3:53 PM,51.1,30.9,46,30.16,10.0,NNW,18.4,-,N/A,,Scattered Clouds,340,2012-10-29 20:53:00
3:58 PM,51.8,32.0,47,30.15,10.0,North,16.1,-,N/A,,Scattered Clouds,350,2012-10-29 20:58:00
4:53 PM,50.0,30.0,46,30.16,10.0,North,18.4,26.5,N/A,,Clear,360,2012-10-29 21:53:00
5:53 PM,48.0,28.9,48,30.14,10.0,NNW,16.1,-,N/A,,Clear,340,2012-10-29 22:53:00
6:53 PM,46.0,28.9,51,30.13,10.0,North,11.5,-,N/A,,Clear,350,2012-10-29 23:53:00
7:53 PM,44.1,28.9,55,30.12,10.0,North,11.5,-,N/A,,Clear,350,2012-10-30 00:53:00
8:53 PM,39.9,30.0,68,30.12,10.0,NNW,8.1,-,N/A,,Clear,330,2012-10-30 01:53:00
9:53 PM,41.0,28.0,60,30.09,10.0,NNW,11.5,-,N/A,,Clear,340,2012-10-30 02:53:00
10:53 PM,37.9,28.9,70,30.08,10.0,NW,10.4,-,N/A,,Clear,320,2012-10-30 03:53:00
11:53 PM,39.9,27.0,60,30.05,10.0,NNW,18.4,25.3,N/A,,Clear,340,2012-10-30 04:53:00